Terminal Aerodrome Forecast
Issued by NWS

Home | Current Version | Previous Version | Text Only | Print | Product List | Glossary On
Versions: 1 2 3 4 5 6 7 8 9 10 11 12 13 14 15 16 17
000
FTUS44 KLZK 242000 AAB
TAFADF
TAF AMD
KADF 242056Z 2421/2518 15012G23KT P6SM VCSH SCT025 OVC040
      TEMPO 2421/2422 VRB10G20KT 4SM -TSRA BR OVC025CB
     FM242200 16008G18KT P6SM VCTS SCT020 OVC040CB
      TEMPO 2422/2502 4SM -RA BR BKN025 OVC040
     FM250300 18008KT 5SM -RA BR BKN025 OVC040
     FM251000 20004KT 3SM -RA BR OVC015
     FM251500 20007KT P6SM VCSH OVC025=

USA.gov is the U.S. government's official web portal to all federal, state and local government web resources and services.